Flight Track Log - Related Links

Times and Time Zones

All times are in EDT time to prevent confusion due to time zone crossing. See the CES5389 flight status page for this flight to view local times or setup timezone preferences in your user account.

Time Position Orientation Groundspeed Altitude Reporting Facility
EDT Latitude Longitude Course Direction KTS MPH feet Rate Location/Type
Sun 07:42:56 PM 31.2150 121.3310 358° North 156 180 700  Level FlightAware ADS-B
Sun 07:43:17 PM 31.2290 121.3310 360° North 148 170 1,700 2,700 Climbing FlightAware ADS-B
Sun 07:43:36 PM 31.2430 121.3300 357° North 153 176 2,500 2,308 Climbing FlightAware ADS-B
Sun 07:43:56 PM 31.2580 121.3290 357° North 166 191 3,200 1,714 Climbing FlightAware ADS-B
Sun 07:44:11 PM 31.2700 121.3290 360° North 186 214 3,500 1,371 Climbing FlightAware ADS-B
Sun 07:44:31 PM 31.2890 121.3280 357° North 218 251 4,000 1,500 Climbing FlightAware ADS-B
Sun 07:44:51 PM 31.3110 121.3270 358° North 251 289 4,500 1,886 Climbing FlightAware ADS-B
Sun 07:45:06 PM 31.3280 121.3230 349° North 267 307 5,100 2,400 Climbing FlightAware ADS-B
Sun 07:45:11 PM 31.3350 121.3190 334° Northwest 271 312 5,300 3,200 Climbing FlightAware ADS-B
Sun 07:45:21 PM 31.3440 121.3100 320° Northwest 276 318 5,900 3,600 Climbing FlightAware ADS-B
Sun 07:45:26 PM 31.3480 121.3040 308° West 276 318 6,200 4,080 Climbing FlightAware ADS-B
Sun 07:45:46 PM 31.3620 121.2790 303° West 269 310 7,600 3,300 Climbing FlightAware ADS-B
Sun 07:46:06 PM 31.3750 121.2550 302° West 280 322 8,400 2,850 Climbing FlightAware ADS-B
Sun 07:46:26 PM 31.3890 121.2290 302° West 283 326 9,500 2,500 Climbing FlightAware ADS-B
Sun 07:47:06 PM 31.4190 121.1740 303° West 318 366 10,900 1,680 Climbing FlightAware ADS-B
Sun 07:47:41 PM 31.4510 121.1220 306° West 360 414 11,600 1,467 Climbing FlightAware ADS-B
Sun 07:47:51 PM 31.4640 121.1110 324° Northwest 366 421 12,000 2,880 Climbing FlightAware ADS-B
Sun 07:48:31 PM 31.5270 121.0760 335° Northwest 374 430 14,000 2,657 Climbing FlightAware ADS-B
Sun 07:49:01 PM 31.5740 121.0510 336° Northwest 378 435 15,100 1,754 Climbing FlightAware ADS-B
Sun 07:49:36 PM 31.6310 121.0210 336° Northwest 377 434 15,900 1,543 Climbing FlightAware ADS-B
Sun 07:50:11 PM 31.6850 120.9920 335° Northwest 382 440 16,900 1,714 Climbing FlightAware ADS-B
Sun 07:50:46 PM 31.7450 120.9600 336° Northwest 388 447 17,900 1,714 Climbing FlightAware ADS-B
Sun 07:51:21 PM 31.8020 120.9290 335° Northwest 393 452 18,900 1,543 Climbing FlightAware ADS-B
Sun 07:51:56 PM 31.8610 120.8980 336° Northwest 390 449 19,700 686 Climbing FlightAware ADS-B
Sun 07:52:31 PM 31.9140 120.8690 335° Northwest 384 442 19,700 86 Level FlightAware ADS-B
Sun 07:53:06 PM 31.9730 120.8380 336° Northwest 385 443 19,800 943 Climbing FlightAware ADS-B
Sun 07:53:41 PM 32.0270 120.8080 335° Northwest 386 444 20,800 1,520 Climbing FlightAware ADS-B
Sun 07:54:21 PM 32.0970 120.7710 336° Northwest 389 448 21,700 771 Climbing FlightAware ADS-B
Sun 07:54:51 PM 32.1430 120.7400 330° Northwest 384 442 21,700  Level FlightAware ADS-B
Sun 07:55:16 PM 32.1670 120.6980 304° West 386 444 21,700  Level FlightAware ADS-B
Sun 07:55:36 PM 32.1740 120.6580 282° West 390 449 21,700  Level FlightAware ADS-B
Sun 07:56:11 PM 32.1810 120.5830 276° West 391 450 21,700  Level FlightAware ADS-B
Sun 07:56:46 PM 32.1880 120.5060 276° West 393 452 21,700 92 Level FlightAware ADS-B
Sun 07:57:16 PM 32.1940 120.4490 277° West 393 452 21,800 771 Climbing FlightAware ADS-B
Sun 07:57:56 PM 32.2020 120.3590 276° West 399 459 22,600 1,360 Climbing FlightAware ADS-B
Sun 07:58:31 PM 32.2090 120.2840 276° West 403 464 23,500 1,520 Climbing FlightAware ADS-B
Sun 07:59:11 PM 32.2160 120.1930 275° West 403 464 24,500 1,052 Climbing FlightAware ADS-B
Sun 08:00:08 PM 32.2250 120.0860 276° West 401 461 25,200 737 Climbing FlightAware ADS-B
Sun 08:02:00 PM 32.2899 119.9091 293° West  Level Estimated
Sun 08:03:00 PM 32.3246 119.8142 293° West  Level Estimated
Sun 08:04:00 PM 32.3591 119.7193 293° West  Level Estimated
Sun 08:05:00 PM 32.3937 119.6243 293° West  Level Estimated
Sun 08:06:00 PM 32.4281 119.5292 293° West  Level Estimated
Sun 08:07:00 PM 32.4625 119.4340 293° West  Level Estimated
Sun 08:08:00 PM 32.4968 119.3388 293° West  Level Estimated
Sun 08:09:00 PM 32.5310 119.2435 293° West  Level Estimated
Sun 08:10:00 PM 32.5652 119.1481 293° West  Level Estimated
Sun 08:11:00 PM 32.5993 119.0527 293° West  Level Estimated
Sun 08:12:00 PM 32.6333 118.9571 293° West  Level Estimated
Sun 08:13:00 PM 32.6672 118.8615 293° West  Level Estimated
Sun 08:14:00 PM 32.7011 118.7659 293° West  Level Estimated
Sun 08:15:00 PM 32.7349 118.6701 293° West  Level Estimated
Sun 08:16:00 PM 32.7686 118.5743 293° West  Level Estimated
Sun 08:17:00 PM 32.8022 118.4784 293° West  Level Estimated
Sun 08:18:00 PM 32.8358 118.3824 293° West  Level Estimated
Sun 08:19:00 PM 32.8693 118.2864 293° West  Level Estimated
Sun 08:20:00 PM 32.9028 118.1903 293° West  Level Estimated
Sun 08:21:00 PM 32.9361 118.0941 292° West  Level Estimated
Sun 08:22:00 PM 32.9694 117.9979 292° West  Level Estimated
Sun 08:23:00 PM 33.0026 117.9016 292° West  Level Estimated
Sun 08:24:00 PM 33.0358 117.8052 292° West  Level Estimated
Sun 08:25:00 PM 33.0688 117.7087 292° West  Level Estimated
Sun 08:26:00 PM 33.1018 117.6122 292° West  Level Estimated
Sun 08:27:00 PM 33.1347 117.5155 292° West  Level Estimated
Sun 08:28:00 PM 33.1675 117.4189 292° West  Level Estimated
Sun 08:29:00 PM 33.2003 117.3221 292° West  Level Estimated
Sun 08:30:00 PM 33.2330 117.2253 292° West  Level Estimated
Sun 08:31:00 PM 33.2656 117.1284 292° West  Level Estimated
Sun 08:32:00 PM 33.2981 117.0314 292° West  Level Estimated
Sun 08:33:00 PM 33.3306 116.9343 292° West  Level Estimated
Sun 08:34:00 PM 33.3630 116.8372 292° West  Level Estimated
Sun 08:35:00 PM 33.3953 116.7400 292° West  Level Estimated
Sun 08:36:00 PM 33.4276 116.6428 292° West  Level Estimated
Sun 08:37:00 PM 33.4597 116.5454 292° West  Level Estimated
Sun 08:38:00 PM 33.4918 116.4480 292° West  Level Estimated
Sun 08:39:00 PM 33.5238 116.3505 292° West  Level Estimated
Sun 08:40:00 PM 33.5557 116.2530 291° West  Level Estimated
Sun 08:41:00 PM 33.5876 116.1554 291° West  Level Estimated
Sun 08:42:00 PM 33.6194 116.0577 291° West  Level Estimated
Sun 08:43:00 PM 33.6511 115.9599 291° West  Level Estimated
Sun 08:44:00 PM 33.6827 115.8621 291° West  Level Estimated
Sun 08:45:00 PM 33.7142 115.7642 291° West  Level Estimated
Sun 08:46:00 PM 33.7457 115.6662 291° West  Level Estimated
Sun 08:47:00 PM 33.7771 115.5681 291° West  Level Estimated
Sun 08:48:00 PM 33.8084 115.4700 291° West  Level Estimated
Sun 08:49:00 PM 33.8396 115.3718 291° West  Level Estimated
Sun 08:50:00 PM 33.8708 115.2735 291° West  Level Estimated
Sun 08:51:00 PM 33.9019 115.1752 291° West  Level Estimated
Sun 08:52:00 PM 33.9329 115.0768 291° West  Level Estimated
Sun 08:53:00 PM 33.9638 114.9783 291° West  Level Estimated
Sun 08:54:00 PM 33.9947 114.8797 291° West  Level Estimated
Sun 08:55:00 PM 34.0254 114.7811 291° West  Level Estimated
Sun 08:56:00 PM 34.0561 114.6824 291° West  Level Estimated
Sun 08:57:00 PM 34.0867 114.5836 291° West  Level Estimated
Sun 08:58:00 PM 34.1172 114.4848 290° West  Level Estimated
Sun 08:59:00 PM 34.1477 114.3859 290° West  Level Estimated
Sun 09:00:00 PM 34.1781 114.2869 290° West  Level Estimated
Sun 09:01:00 PM 34.2084 114.1878 290° West  Level Estimated
Sun 09:02:00 PM 34.2386 114.0887 290° West  Level Estimated
Sun 09:03:00 PM 34.2687 113.9895 290° West  Level Estimated
Sun 09:04:00 PM 34.2988 113.8902 290° West  Level Estimated
Sun 09:05:00 PM 34.3287 113.7909 290° West  Level Estimated
Sun 09:06:00 PM 34.3586 113.6915 290° West  Level Estimated
Sun 09:07:00 PM 34.3884 113.5920 290° West  Level Estimated
Sun 09:08:00 PM 34.4182 113.4924 290° West  Level Estimated
Sun 09:09:00 PM 34.4478 113.3928 290° West  Level Estimated
Sun 09:10:00 PM 34.4774 113.2931 290° West  Level Estimated
Sun 09:11:00 PM 34.5069 113.1934 290° West  Level Estimated
Sun 09:12:00 PM 34.5363 113.0935 290° West  Level Estimated
Sun 09:13:00 PM 34.5656 112.9936 290° West  Level Estimated
Sun 09:14:00 PM 34.5948 112.8936 290° West  Level Estimated
Sun 09:15:00 PM 34.6240 112.7936 290° West  Level Estimated
Sun 09:16:00 PM 34.6531 112.6935 289° West  Level Estimated
Sun 09:17:00 PM 34.6821 112.5933 289° West  Level Estimated
Sun 09:18:00 PM 34.7110 112.4930 289° West  Level Estimated
Sun 09:19:00 PM 34.7398 112.3927 289° West  Level Estimated
Sun 09:20:00 PM 34.7411 112.3883 289° West  Level Estimated
Sun 09:21:00 PM 34.7411 112.3883 68° East  Level Estimated
Sun 09:22:00 PM 34.7411 112.3883 68° East  Level Estimated
Sun 09:23:00 PM 34.7411 112.3883 68° East  Level Estimated
Sun 09:24:00 PM 34.7411 112.3883 68° East  Level Estimated
Sun 09:25:00 PM 34.7411 112.3883 68° East  Level Estimated
Sun 09:26:00 PM 34.7411 112.3883 68° East  Level Estimated
Sun 09:27:00 PM 34.7411 112.3883 68° East  Level Estimated
Sun 09:28:00 PM 34.7411 112.3883 68° East  Level Estimated
Sun 09:29:00 PM 34.7411 112.3883 68° East  Level Estimated
Sun 09:30:00 PM 34.7411 112.3883 68° East  Level Estimated
Sun 09:31:00 PM 34.7411 112.3883 68° East  Level Estimated
Sun 09:32:00 PM 34.7411 112.3883 68° East  Level Estimated
Sun 09:33:00 PM 34.7411 112.3883 68° East  Level Estimated

Login

Don't have an account? Register now (free) for customized features, flight alerts, and more!